Time;durP1;ratioP1;P1;durP2;ratioP2;P2;SDS_P1;SDS_P2;PMS_P1;PMS_P2;Temp;Humidity;BMP_temperature;BMP_pressure;BME280_temperature;BME280_humidity;BME280_pressure;Samples;Min_cycle;Max_cycle;Signal;HPM_P1;HPM_P2
2021/10/02 00:36:38;;;;;;;;;;;14.50;1.00;;;;;;5058330;28;19958;-82
2021/10/02 00:47:03;;;;;;;;;;;14.40;1.00;;;;;;5064773;28;19923;-83
2021/10/02 00:49:28;;;;;;;;;;;14.40;1.00;;;;;;5059597;28;20016;-83
2021/10/02 00:51:53;;;;;;;;;;;14.40;1.00;;;;;;5057243;28;19940;-83
2021/10/02 00:54:19;;;;;;;;;;;14.40;1.00;;;;;;5055600;28;19909;-83
2021/10/02 00:56:44;;;;;;;;;;;14.40;1.00;;;;;;5057519;28;19956;-82
2021/10/02 00:59:10;;;;;;;;;;;14.40;1.00;;;;;;5057899;28;20000;-83
2021/10/02 01:01:45;;;;;;;;;;;14.30;1.00;;;;;;5070642;28;19909;-83
2021/10/02 01:04:29;;;;;;;;;;;14.30;1.00;;;;;;5070867;28;19920;-83
2021/10/02 01:07:13;;;;;;;;;;;14.30;1.00;;;;;;5057867;28;19976;-82
2021/10/02 01:09:38;;;;;;;;;;;14.30;1.00;;;;;;5054311;28;20437;-84
2021/10/02 01:12:23;;;;;;;;;;;14.30;1.00;;;;;;5073195;28;19995;-83
2021/10/02 01:14:53;;;;;;;;;;;14.30;1.00;;;;;;5056576;28;19913;-82
2021/10/02 01:17:34;;;;;;;;;;;14.20;1.00;;;;;;5055976;28;19920;-81
2021/10/02 01:20:11;;;;;;;;;;;14.20;1.00;;;;;;5057875;28;19913;-83
2021/10/02 01:23:03;;;;;;;;;;;14.20;1.00;;;;;;5057612;28;19920;-83
2021/10/02 01:25:47;;;;;;;;;;;14.10;1.00;;;;;;5050623;28;20406;-83
2021/10/02 01:28:19;;;;;;;;;;;14.10;1.00;;;;;;5057746;28;19913;-82
2021/10/02 01:33:32;;;;;;;;;;;14.10;1.00;;;;;;5038426;28;19935;-84
2021/10/02 01:49:29;;;;;;;;;;;13.90;1.00;;;;;;5059296;28;20300;-83
2021/10/02 01:51:56;;;;;;;;;;;13.90;1.00;;;;;;5066045;28;19916;-83
2021/10/02 01:54:22;;;;;;;;;;;13.90;1.00;;;;;;5064210;28;19979;-83
2021/10/02 01:56:48;;;;;;;;;;;13.90;1.00;;;;;;5060397;28;20269;-83
2021/10/02 01:59:14;;;;;;;;;;;13.80;1.00;;;;;;5059835;28;19939;-83
2021/10/02 02:01:41;;;;;;;;;;;13.70;1.00;;;;;;5060649;28;19996;-83
2021/10/02 02:04:07;;;;;;;;;;;13.70;1.00;;;;;;5059112;28;19960;-83
2021/10/02 02:06:33;;;;;;;;;;;13.70;1.00;;;;;;5059787;28;20303;-82
2021/10/02 02:08:59;;;;;;;;;;;13.60;1.00;;;;;;5075774;28;19966;-82
2021/10/02 02:11:26;;;;;;;;;;;13.60;1.00;;;;;;5058778;28;19923;-83
2021/10/02 02:13:52;;;;;;;;;;;13.60;1.00;;;;;;5061169;28;19990;-83
2021/10/02 02:16:18;;;;;;;;;;;13.50;1.00;;;;;;5059342;28;19913;-83
2021/10/02 02:18:44;;;;;;;;;;;13.50;1.00;;;;;;5072053;28;20499;-82
2021/10/02 02:21:11;;;;;;;;;;;13.50;1.00;;;;;;5062622;28;19959;-83
2021/10/02 02:23:37;;;;;;;;;;;13.60;1.00;;;;;;5058743;28;19917;-83
2021/10/02 02:26:06;;;;;;;;;;;13.60;1.00;;;;;;5058326;28;19913;-83
2021/10/02 02:28:34;;;;;;;;;;;13.50;1.00;;;;;;5057483;28;19913;-83
2021/10/02 02:31:00;;;;;;;;;;;13.50;1.00;;;;;;5060299;28;19920;-83
2021/10/02 02:33:26;;;;;;;;;;;13.50;1.00;;;;;;5057767;28;19917;-83
2021/10/02 02:35:52;;;;;;;;;;;13.60;1.00;;;;;;5059287;28;19935;-83
2021/10/02 02:38:18;;;;;;;;;;;13.60;1.00;;;;;;5054264;28;19920;-83
2021/10/02 02:40:43;;;;;;;;;;;13.60;1.00;;;;;;5070598;28;19995;-82
2021/10/02 02:43:10;;;;;;;;;;;13.60;1.00;;;;;;5054912;28;20332;-82
2021/10/02 02:45:35;;;;;;;;;;;13.60;1.00;;;;;;5053937;28;19919;-82
2021/10/02 02:48:04;;;;;;;;;;;13.60;1.00;;;;;;5059938;28;19913;-83
2021/10/02 02:50:41;;;;;;;;;;;13.50;1.00;;;;;;5053801;28;19966;-83
2021/10/02 02:53:11;;;;;;;;;;;13.50;1.00;;;;;;5078881;28;19924;-83
2021/10/02 02:55:41;;;;;;;;;;;13.50;1.00;;;;;;5065143;28;19917;-83
2021/10/02 02:58:07;;;;;;;;;;;13.40;1.00;;;;;;5059041;28;19916;-83
2021/10/02 03:00:40;;;;;;;;;;;13.40;1.00;;;;;;5074651;28;19974;-83
2021/10/02 03:03:07;;;;;;;;;;;13.40;1.00;;;;;;5056474;28;19913;-83
2021/10/02 03:05:34;;;;;;;;;;;13.40;1.00;;;;;;5074057;28;19971;-83
2021/10/02 03:08:01;;;;;;;;;;;13.30;1.00;;;;;;5069718;28;19920;-82
2021/10/02 03:10:28;;;;;;;;;;;13.30;1.00;;;;;;5058111;28;19913;-83
2021/10/02 03:12:55;;;;;;;;;;;13.30;1.00;;;;;;5057040;28;20394;-83
2021/10/02 03:15:21;;;;;;;;;;;13.30;1.00;;;;;;5058754;28;19913;-83
2021/10/02 03:17:48;;;;;;;;;;;13.30;1.00;;;;;;5059532;28;20375;-83
2021/10/02 03:20:14;;;;;;;;;;;13.30;1.00;;;;;;5056951;28;20345;-83
2021/10/02 03:22:41;;;;;;;;;;;13.20;1.00;;;;;;5059378;28;19912;-83
2021/10/02 03:25:06;;;;;;;;;;;13.20;1.00;;;;;;5064755;28;20003;-83
2021/10/02 03:27:32;;;;;;;;;;;13.20;1.00;;;;;;5061019;28;19959;-83
2021/10/02 03:29:59;;;;;;;;;;;13.30;1.00;;;;;;5057449;28;20004;-83
2021/10/02 03:32:25;;;;;;;;;;;13.30;1.00;;;;;;5057886;28;19913;-83
2021/10/02 03:34:54;;;;;;;;;;;13.30;1.00;;;;;;5057368;28;20015;-83
2021/10/02 03:37:20;;;;;;;;;;;13.30;1.00;;;;;;5058075;28;19912;-83
2021/10/02 03:39:45;;;;;;;;;;;13.40;1.00;;;;;;5057649;28;19920;-83
2021/10/02 03:42:11;;;;;;;;;;;13.40;1.00;;;;;;5098546;22;19924;-79
2021/10/02 03:44:40;;;;;;;;;;;13.40;1.00;;;;;;5074413;28;19959;-78
2021/10/02 03:47:05;;;;;;;;;;;13.40;1.00;;;;;;5070051;28;20387;-78
2021/10/02 03:49:31;;;;;;;;;;;13.40;1.00;;;;;;5071961;28;19944;-79
2021/10/02 03:51:56;;;;;;;;;;;13.40;1.00;;;;;;5069201;28;19967;-79
2021/10/02 03:54:22;;;;;;;;;;;13.40;1.00;;;;;;5046129;28;19914;-79
2021/10/02 03:56:47;;;;;;;;;;;13.40;1.00;;;;;;5053279;28;19947;-80
2021/10/02 03:59:13;;;;;;;;;;;13.40;1.00;;;;;;5053927;28;20514;-79
2021/10/02 04:01:38;;;;;;;;;;;13.50;1.00;;;;;;5053344;28;20394;-78
2021/10/02 04:04:04;;;;;;;;;;;13.50;1.00;;;;;;5056489;28;19916;-79
2021/10/02 04:06:29;;;;;;;;;;;13.50;1.00;;;;;;5054564;28;19912;-80
2021/10/02 04:08:55;;;;;;;;;;;13.50;1.00;;;;;;5055264;28;19916;-80
2021/10/02 04:11:21;;;;;;;;;;;13.50;1.00;;;;;;5045971;28;20372;-79
2021/10/02 04:13:46;;;;;;;;;;;13.50;1.00;;;;;;5054995;28;19963;-79
2021/10/02 04:16:11;;;;;;;;;;;13.60;1.00;;;;;;5053638;28;19919;-79
2021/10/02 04:18:37;;;;;;;;;;;13.60;1.00;;;;;;5056219;28;19931;-80
2021/10/02 04:21:02;;;;;;;;;;;13.60;1.00;;;;;;5055317;28;20445;-78
2021/10/02 04:23:30;;;;;;;;;;;13.60;1.00;;;;;;5077411;28;19908;-79
2021/10/02 04:25:56;;;;;;;;;;;13.60;1.00;;;;;;5062300;28;19913;-81
2021/10/02 04:28:21;;;;;;;;;;;13.60;1.00;;;;;;5052141;28;19919;-80
2021/10/02 04:30:47;;;;;;;;;;;13.60;1.00;;;;;;5055592;28;19920;-79
2021/10/02 04:33:12;;;;;;;;;;;13.60;1.00;;;;;;5058926;28;19963;-79
2021/10/02 04:35:38;;;;;;;;;;;13.60;1.00;;;;;;5069087;28;19922;-80
2021/10/02 04:38:04;;;;;;;;;;;13.60;1.00;;;;;;5073821;28;19927;-78
2021/10/02 04:40:29;;;;;;;;;;;13.60;1.00;;;;;;5067909;28;19912;-79
2021/10/02 04:42:55;;;;;;;;;;;13.60;1.00;;;;;;5074011;28;19971;-80
2021/10/02 04:45:20;;;;;;;;;;;13.60;1.00;;;;;;5052702;28;19913;-80
2021/10/02 04:47:46;;;;;;;;;;;13.60;1.00;;;;;;5053701;28;19920;-78
2021/10/02 04:50:12;;;;;;;;;;;13.60;1.00;;;;;;5066766;28;19920;-80
2021/10/02 04:52:38;;;;;;;;;;;13.60;1.00;;;;;;5066184;28;19916;-79
2021/10/02 04:55:04;;;;;;;;;;;13.60;1.00;;;;;;5058850;28;20387;-79
2021/10/02 04:57:30;;;;;;;;;;;13.60;1.00;;;;;;5060664;28;19927;-80
2021/10/02 04:59:55;;;;;;;;;;;13.60;1.00;;;;;;5059297;28;20288;-79
2021/10/02 05:02:21;;;;;;;;;;;13.60;1.00;;;;;;5059515;28;19960;-79
2021/10/02 05:04:46;;;;;;;;;;;13.60;1.00;;;;;;5051902;28;19988;-79
2021/10/02 05:07:12;;;;;;;;;;;13.60;1.00;;;;;;5078452;28;19951;-79
2021/10/02 05:09:40;;;;;;;;;;;13.50;1.00;;;;;;5068005;28;19959;-79
2021/10/02 05:12:06;;;;;;;;;;;13.50;1.00;;;;;;5059190;28;19919;-79
2021/10/02 05:14:32;;;;;;;;;;;13.50;1.00;;;;;;5058779;28;19948;-80
2021/10/02 05:16:57;;;;;;;;;;;13.40;1.00;;;;;;5058677;28;19913;-80
2021/10/02 05:19:23;;;;;;;;;;;13.40;1.00;;;;;;5056748;28;19920;-78
2021/10/02 05:21:48;;;;;;;;;;;13.30;1.00;;;;;;5055439;28;19920;-79
2021/10/02 05:24:14;;;;;;;;;;;13.30;1.00;;;;;;5058184;28;19920;-80
2021/10/02 05:26:39;;;;;;;;;;;13.20;1.00;;;;;;5058344;28;20014;-80
2021/10/02 05:29:05;;;;;;;;;;;13.10;1.00;;;;;;5056319;28;19913;-80
2021/10/02 05:31:30;;;;;;;;;;;13.10;1.00;;;;;;5059072;28;19917;-78
2021/10/02 05:33:56;;;;;;;;;;;13.10;1.00;;;;;;5057632;28;20299;-79
2021/10/02 05:36:21;;;;;;;;;;;13.00;1.00;;;;;;5058789;28;20374;-78
2021/10/02 05:38:46;;;;;;;;;;;13.00;1.00;;;;;;5053221;28;19912;-82
2021/10/02 05:41:12;;;;;;;;;;;13.00;1.00;;;;;;5050538;28;19966;-80
2021/10/02 05:43:37;;;;;;;;;;;13.00;1.00;;;;;;5056785;28;20027;-80
2021/10/02 05:46:03;;;;;;;;;;;13.00;1.00;;;;;;5056511;28;19964;-81
2021/10/02 05:48:28;;;;;;;;;;;13.00;1.00;;;;;;5058753;28;19912;-81
2021/10/02 05:50:54;;;;;;;;;;;13.10;1.00;;;;;;5058521;28;19917;-81
2021/10/02 05:53:19;;;;;;;;;;;13.10;1.00;;;;;;5070298;28;19963;-82
2021/10/02 05:55:45;;;;;;;;;;;13.20;1.00;;;;;;5058975;28;19920;-81
2021/10/02 05:58:10;;;;;;;;;;;13.20;1.00;;;;;;5059022;28;20007;-81
2021/10/02 06:00:36;;;;;;;;;;;13.20;1.00;;;;;;5058473;28;20289;-82
2021/10/02 06:03:02;;;;;;;;;;;13.30;1.00;;;;;;5059172;28;19916;-81
2021/10/02 06:05:27;;;;;;;;;;;13.30;1.00;;;;;;5058445;28;19923;-83
2021/10/02 06:07:53;;;;;;;;;;;13.40;1.00;;;;;;5059199;28;19937;-82
2021/10/02 06:10:20;;;;;;;;;;;13.40;1.00;;;;;;5058904;28;20380;-81
2021/10/02 06:12:46;;;;;;;;;;;13.50;1.00;;;;;;5053338;28;19917;-82
2021/10/02 06:15:11;;;;;;;;;;;13.60;1.00;;;;;;5048201;28;20375;-81
2021/10/02 06:17:36;;;;;;;;;;;13.80;1.00;;;;;;5058608;28;19920;-82
2021/10/02 06:20:02;;;;;;;;;;;13.90;1.00;;;;;;5057423;28;19908;-82
2021/10/02 06:22:28;;;;;;;;;;;14.10;1.00;;;;;;5071478;28;19921;-83
2021/10/02 06:24:53;;;;;;;;;;;14.30;1.00;;;;;;5058307;28;19960;-83
2021/10/02 06:27:19;;;;;;;;;;;14.60;1.00;;;;;;5058557;28;19913;-83
2021/10/02 06:29:44;;;;;;;;;;;15.10;1.00;;;;;;5061187;28;19917;-83
2021/10/02 06:32:09;;;;;;;;;;;16.20;99.90;;;;;;5055861;28;19923;-83
2021/10/02 06:34:35;;;;;;;;;;;17.00;82.10;;;;;;5060415;28;19913;-83
2021/10/02 06:37:00;;;;;;;;;;;17.80;38.10;;;;;;5058564;28;19909;-82
2021/10/02 06:39:26;;;;;;;;;;;17.40;99.90;;;;;;5056602;28;20322;-82
2021/10/02 06:41:51;;;;;;;;;;;16.90;99.90;;;;;;5059065;28;19970;-81
2021/10/02 06:44:17;;;;;;;;;;;16.50;1.00;;;;;;5050090;28;19919;-83
2021/10/02 06:46:42;;;;;;;;;;;16.30;99.90;;;;;;5058929;28;19909;-83
2021/10/02 06:49:08;;;;;;;;;;;16.20;99.90;;;;;;5068873;28;19925;-83
2021/10/02 06:51:34;;;;;;;;;;;16.20;1.00;;;;;;5082919;28;19971;-84
2021/10/02 06:53:59;;;;;;;;;;;16.50;1.00;;;;;;5076355;28;19913;-84
2021/10/02 06:56:24;;;;;;;;;;;16.80;27.50;;;;;;5066701;28;19908;-83
2021/10/02 06:58:50;;;;;;;;;;;17.00;1.00;;;;;;5074430;28;19919;-84
2021/10/02 07:01:15;;;;;;;;;;;17.30;99.90;;;;;;5055223;28;20370;-83
2021/10/02 07:03:41;;;;;;;;;;;17.50;1.00;;;;;;5077771;28;19912;-83
2021/10/02 07:06:06;;;;;;;;;;;17.60;99.90;;;;;;5059244;28;19913;-83
2021/10/02 07:08:32;;;;;;;;;;;17.60;1.00;;;;;;5060056;28;20389;-83
2021/10/02 07:10:57;;;;;;;;;;;17.50;1.00;;;;;;5061082;28;19913;-83
2021/10/02 07:13:23;;;;;;;;;;;17.40;1.00;;;;;;5066332;28;19917;-83
2021/10/02 07:15:48;;;;;;;;;;;17.40;18.00;;;;;;5050075;28;19909;-84
2021/10/02 07:18:14;;;;;;;;;;;17.50;1.00;;;;;;5053691;28;19913;-85
2021/10/02 07:20:39;;;;;;;;;;;17.50;1.00;;;;;;5056883;28;19909;-84
2021/10/02 07:23:05;;;;;;;;;;;17.50;99.90;;;;;;5057875;28;19912;-86
2021/10/02 07:25:30;;;;;;;;;;;17.50;99.90;;;;;;5060071;28;19913;-84
2021/10/02 07:27:56;;;;;;;;;;;17.70;99.90;;;;;;5072468;28;20015;-85
2021/10/02 07:30:22;;;;;;;;;;;18.10;1.00;;;;;;5056704;28;19912;-82
2021/10/02 07:32:47;;;;;;;;;;;18.20;1.00;;;;;;5054252;28;20384;-85
2021/10/02 07:35:15;;;;;;;;;;;18.40;1.00;;;;;;5059166;28;20212;-84
2021/10/02 07:37:41;;;;;;;;;;;18.70;99.90;;;;;;5051866;28;19913;-85
2021/10/02 07:40:08;;;;;;;;;;;19.00;99.90;;;;;;5038503;28;19932;-85
2021/10/02 07:42:34;;;;;;;;;;;19.40;1.00;;;;;;5038946;28;19917;-84
2021/10/02 07:45:03;;;;;;;;;;;19.30;1.00;;;;;;5039360;28;20272;-84
2021/10/02 07:47:29;;;;;;;;;;;18.90;1.00;;;;;;5049152;28;19917;-85
2021/10/02 07:49:55;;;;;;;;;;;18.60;1.00;;;;;;5058214;28;19916;-83
2021/10/02 07:52:21;;;;;;;;;;;18.40;1.00;;;;;;5059183;28;20285;-83
2021/10/02 07:54:50;;;;;;;;;;;18.20;1.00;;;;;;5041544;28;19913;-85
2021/10/02 07:57:17;;;;;;;;;;;17.80;1.00;;;;;;5038670;28;19963;-84
2021/10/02 07:59:42;;;;;;;;;;;17.90;99.90;;;;;;5036767;28;19916;-84
2021/10/02 08:02:08;;;;;;;;;;;18.30;1.00;;;;;;5039000;28;19917;-84
2021/10/02 08:04:33;;;;;;;;;;;19.10;1.00;;;;;;5039541;28;20000;-85
2021/10/02 08:07:00;;;;;;;;;;;19.40;99.90;;;;;;5040636;28;19921;-86
2021/10/02 08:09:26;;;;;;;;;;;19.30;99.90;;;;;;5037895;28;19909;-85
2021/10/02 08:11:51;;;;;;;;;;;18.90;99.90;;;;;;5055170;28;19928;-83
2021/10/02 08:14:17;;;;;;;;;;;18.50;99.90;;;;;;5039810;28;19909;-84
2021/10/02 08:16:45;;;;;;;;;;;18.20;1.00;;;;;;5040506;28;19964;-85
2021/10/02 08:19:12;;;;;;;;;;;18.70;1.00;;;;;;5040606;28;19913;-84
2021/10/02 08:21:39;;;;;;;;;;;18.70;1.00;;;;;;5039855;28;19925;-85
2021/10/02 08:24:04;;;;;;;;;;;18.50;1.00;;;;;;5042112;28;19988;-85
2021/10/02 08:26:31;;;;;;;;;;;18.50;1.00;;;;;;5040223;28;20262;-84
2021/10/02 08:28:57;;;;;;;;;;;18.90;1.00;;;;;;5040433;28;19909;-85
2021/10/02 08:31:23;;;;;;;;;;;21.20;99.90;;;;;;5039966;28;19916;-85
2021/10/02 08:33:49;;;;;;;;;;;23.40;1.00;;;;;;5038954;28;20296;-85
2021/10/02 08:36:14;;;;;;;;;;;23.60;1.00;;;;;;5039672;28;19936;-85
2021/10/02 08:38:40;;;;;;;;;;;24.40;1.00;;;;;;5038989;28;19913;-86
2021/10/02 08:41:06;;;;;;;;;;;24.10;1.00;;;;;;5039221;28;19909;-84
2021/10/02 08:43:33;;;;;;;;;;;23.60;1.00;;;;;;5038935;28;19925;-85
2021/10/02 08:46:00;;;;;;;;;;;23.50;1.00;;;;;;5041088;28;19909;-85
2021/10/02 08:48:26;;;;;;;;;;;24.40;99.90;;;;;;5057742;28;20007;-83
2021/10/02 08:50:51;;;;;;;;;;;24.10;99.90;;;;;;5060516;28;19909;-84
2021/10/02 08:53:17;;;;;;;;;;;23.70;99.90;;;;;;5060634;28;19912;-86
2021/10/02 08:55:43;;;;;;;;;;;24.10;99.90;;;;;;5044568;28;19913;-84
2021/10/02 08:58:08;;;;;;;;;;;24.20;99.90;;;;;;5039771;28;19920;-85
2021/10/02 09:00:34;;;;;;;;;;;24.00;99.90;;;;;;5039408;28;19909;-85
2021/10/02 09:03:00;;;;;;;;;;;23.30;99.90;;;;;;5039968;28;19910;-85
2021/10/02 09:05:26;;;;;;;;;;;22.60;99.90;;;;;;5055820;28;19909;-84
2021/10/02 09:07:54;;;;;;;;;;;22.00;99.90;;;;;;5040155;28;19920;-84
2021/10/02 09:10:20;;;;;;;;;;;21.30;99.90;;;;;;5042255;28;19909;-84
2021/10/02 09:12:47;;;;;;;;;;;20.70;99.90;;;;;;5043517;28;20432;-84
2021/10/02 09:15:13;;;;;;;;;;;20.30;99.90;;;;;;5059596;28;19909;-85
2021/10/02 09:17:38;;;;;;;;;;;19.80;99.90;;;;;;5043337;28;20001;-85
2021/10/02 09:20:05;;;;;;;;;;;19.50;1.00;;;;;;5044065;28;19940;-85
2021/10/02 09:22:30;;;;;;;;;;;19.30;99.90;;;;;;5044465;28;19909;-83
2021/10/02 09:24:58;;;;;;;;;;;19.10;1.00;;;;;;5059852;28;19909;-85
2021/10/02 09:27:25;;;;;;;;;;;18.80;1.00;;;;;;5043866;28;19920;-85
2021/10/02 09:29:56;;;;;;;;;;;18.60;1.00;;;;;;5042714;28;19932;-83
2021/10/02 09:32:25;;;;;;;;;;;18.60;1.00;;;;;;5043401;28;19920;-84
2021/10/02 09:34:52;;;;;;;;;;;18.60;1.00;;;;;;5043997;28;19909;-84
2021/10/02 09:37:28;;;;;;;;;;;18.80;1.00;;;;;;5043855;28;19909;-85
2021/10/02 09:40:04;;;;;;;;;;;19.60;1.00;;;;;;5043937;28;19909;-82
2021/10/02 09:42:34;;;;;;;;;;;20.00;1.00;;;;;;5072321;22;19932;-83
2021/10/02 09:45:05;;;;;;;;;;;20.00;1.00;;;;;;5062501;28;19912;-83
2021/10/02 09:47:31;;;;;;;;;;;20.00;1.00;;;;;;5063081;28;20075;-83
2021/10/02 09:49:56;;;;;;;;;;;20.10;1.00;;;;;;5062092;28;19952;-83
2021/10/02 09:52:29;;;;;;;;;;;20.20;1.00;;;;;;5063159;28;19917;-83
2021/10/02 09:54:55;;;;;;;;;;;20.30;1.00;;;;;;5064578;28;20008;-83
2021/10/02 09:57:20;;;;;;;;;;;20.40;1.00;;;;;;5063522;28;19909;-83
2021/10/02 09:59:46;;;;;;;;;;;20.30;1.00;;;;;;5063942;28;19912;-83
2021/10/02 10:02:16;;;;;;;;;;;20.40;1.00;;;;;;5060475;28;19913;-83
2021/10/02 10:04:51;;;;;;;;;;;20.40;1.00;;;;;;5063936;28;19936;-83
2021/10/02 10:07:16;;;;;;;;;;;20.40;1.00;;;;;;5060737;28;19937;-82
2021/10/02 10:09:42;;;;;;;;;;;20.40;1.00;;;;;;5059422;28;19963;-82
2021/10/02 10:12:07;;;;;;;;;;;20.30;1.00;;;;;;5060791;28;19919;-83
2021/10/02 10:14:34;;;;;;;;;;;20.40;1.00;;;;;;5061082;28;19909;-83
2021/10/02 10:16:59;;;;;;;;;;;20.60;1.00;;;;;;5059716;28;19913;-83
2021/10/02 10:19:26;;;;;;;;;;;21.10;1.00;;;;;;5060528;28;19932;-83
2021/10/02 10:22:08;;;;;;;;;;;21.40;1.00;;;;;;5058476;28;19908;-83
2021/10/02 10:24:35;;;;;;;;;;;21.30;1.00;;;;;;5059302;28;19909;-83
2021/10/02 10:27:00;;;;;;;;;;;21.10;1.00;;;;;;5059371;28;19916;-83
2021/10/02 10:29:39;;;;;;;;;;;20.80;1.00;;;;;;5060232;28;19908;-83
2021/10/02 10:32:07;;;;;;;;;;;20.90;1.00;;;;;;5059852;28;19928;-83
2021/10/02 10:34:32;;;;;;;;;;;21.40;1.00;;;;;;5057519;28;20287;-83
2021/10/02 10:36:58;;;;;;;;;;;21.80;99.90;;;;;;5059355;28;19999;-84
2021/10/02 10:39:24;;;;;;;;;;;22.10;99.90;;;;;;5058782;28;20365;-82
2021/10/02 10:41:49;;;;;;;;;;;23.50;99.90;;;;;;5056392;28;19913;-83
2021/10/02 10:44:16;;;;;;;;;;;26.30;99.90;;;;;;5055316;28;20433;-83
2021/10/02 10:46:41;;;;;;;;;;;27.50;99.90;;;;;;5056208;28;19913;-83
2021/10/02 10:49:07;;;;;;;;;;;28.40;99.90;;;;;;5056676;28;19921;-83
2021/10/02 10:51:34;;;;;;;;;;;28.70;99.90;;;;;;5054420;28;19909;-83
2021/10/02 10:54:00;;;;;;;;;;;28.90;99.90;;;;;;5052931;28;19909;-83
2021/10/02 10:56:42;;;;;;;;;;;29.40;99.90;;;;;;5053698;28;19916;-82
2021/10/02 10:59:07;;;;;;;;;;;28.90;99.90;;;;;;5054241;28;20519;-83
2021/10/02 11:01:34;;;;;;;;;;;27.40;99.90;;;;;;5054214;28;19962;-83
2021/10/02 11:03:59;;;;;;;;;;;26.50;99.90;;;;;;5055842;28;19909;-82
2021/10/02 11:06:45;;;;;;;;;;;25.50;99.90;;;;;;5056938;28;19909;-83
2021/10/02 11:09:10;;;;;;;;;;;24.70;99.90;;;;;;5059266;28;19913;-83
2021/10/02 11:11:54;;;;;;;;;;;24.00;99.90;;;;;;5059173;28;19909;-82
2021/10/02 11:14:59;;;;;;;;;;;23.70;99.90;;;;;;5056786;28;20277;-82
2021/10/02 11:17:30;;;;;;;;;;;23.80;99.90;;;;;;5056539;28;19909;-82
2021/10/02 11:19:55;;;;;;;;;;;23.80;99.90;;;;;;5056430;28;19915;-83
2021/10/02 11:22:45;;;;;;;;;;;23.80;99.90;;;;;;5055693;28;20287;-83
2021/10/02 11:25:17;;;;;;;;;;;23.50;99.90;;;;;;5055657;28;19917;-82
2021/10/02 11:27:43;;;;;;;;;;;23.20;99.90;;;;;;5056252;28;19915;-82
2021/10/02 11:30:15;;;;;;;;;;;22.90;99.90;;;;;;5057350;28;19909;-82
2021/10/02 11:32:41;;;;;;;;;;;22.60;99.90;;;;;;5057780;28;19912;-82
2021/10/02 11:35:09;;;;;;;;;;;22.30;99.90;;;;;;5055966;28;20406;-82
2021/10/02 11:37:55;;;;;;;;;;;22.30;99.90;;;;;;5055166;28;20331;-82
2021/10/02 11:40:35;;;;;;;;;;;22.40;99.90;;;;;;5054350;28;20321;-82
2021/10/02 11:43:13;;;;;;;;;;;22.60;99.90;;;;;;5053972;28;19939;-82
2021/10/02 11:45:45;;;;;;;;;;;22.70;99.90;;;;;;5054091;28;19913;-82
2021/10/02 11:48:11;;;;;;;;;;;22.50;99.90;;;;;;5054597;28;19909;-82
2021/10/02 11:50:37;;;;;;;;;;;22.40;99.90;;;;;;5055971;28;20331;-82
2021/10/02 11:53:03;;;;;;;;;;;22.50;99.90;;;;;;5055676;28;19920;-83
2021/10/02 11:55:41;;;;;;;;;;;22.40;99.90;;;;;;5055548;28;20313;-83
2021/10/02 11:58:09;;;;;;;;;;;22.20;99.90;;;;;;5054730;28;19992;-82
2021/10/02 12:00:34;;;;;;;;;;;22.00;99.90;;;;;;5056486;28;19920;-82
2021/10/02 12:03:01;;;;;;;;;;;21.80;99.90;;;;;;5056383;28;20417;-82
2021/10/02 12:05:27;;;;;;;;;;;21.70;99.90;;;;;;5054045;28;19909;-82
2021/10/02 12:07:52;;;;;;;;;;;21.70;99.90;;;;;;5056281;28;20004;-83
2021/10/02 12:10:18;;;;;;;;;;;21.80;99.90;;;;;;5055234;28;20276;-82
2021/10/02 12:12:43;;;;;;;;;;;21.90;99.90;;;;;;5055946;28;19912;-83
2021/10/02 12:15:09;;;;;;;;;;;21.90;99.90;;;;;;5056229;28;19972;-82
2021/10/02 12:17:34;;;;;;;;;;;21.90;99.90;;;;;;5054594;28;20365;-82
2021/10/02 12:20:00;;;;;;;;;;;21.90;99.90;;;;;;5055062;28;19971;-82
2021/10/02 12:22:29;;;;;;;;;;;22.20;99.90;;;;;;5060127;28;19909;-82
2021/10/02 12:24:54;;;;;;;;;;;22.30;99.90;;;;;;5059130;28;20014;-82
2021/10/02 12:27:20;;;;;;;;;;;22.50;99.90;;;;;;5060507;28;19909;-83
2021/10/02 12:29:47;;;;;;;;;;;22.40;99.90;;;;;;5061523;28;19909;-82
2021/10/02 12:32:14;;;;;;;;;;;22.30;99.90;;;;;;5060629;28;20285;-82
2021/10/02 12:34:40;;;;;;;;;;;22.20;99.90;;;;;;5059425;28;19908;-82
2021/10/02 12:37:20;;;;;;;;;;;22.30;99.90;;;;;;5059716;28;19960;-82
2021/10/02 12:39:49;;;;;;;;;;;22.50;99.90;;;;;;5057960;28;19944;-82
2021/10/02 12:42:21;;;;;;;;;;;22.70;99.90;;;;;;5060032;28;19925;-82
2021/10/02 12:44:49;;;;;;;;;;;22.60;99.90;;;;;;5062706;28;19908;-82
2021/10/02 12:47:14;;;;;;;;;;;22.40;99.90;;;;;;5064957;28;19909;-82
2021/10/02 12:49:41;;;;;;;;;;;22.10;99.90;;;;;;5064080;28;19915;-82
2021/10/02 12:52:07;;;;;;;;;;;21.90;99.90;;;;;;5065434;28;19917;-82
2021/10/02 12:54:35;;;;;;;;;;;21.60;99.90;;;;;;5066986;28;19909;-82
2021/10/02 12:57:01;;;;;;;;;;;21.40;99.90;;;;;;5062893;28;19912;-83
2021/10/02 12:59:52;;;;;;;;;;;21.30;99.90;;;;;;5064154;28;19909;-82
2021/10/02 13:02:20;;;;;;;;;;;21.70;99.90;;;;;;5053778;28;20396;-83
2021/10/02 13:04:49;;;;;;;;;;;22.30;99.90;;;;;;5060844;28;19916;-82
2021/10/02 13:07:21;;;;;;;;;;;22.60;99.90;;;;;;5058695;28;19913;-83
2021/10/02 13:10:17;;;;;;;;;;;22.80;99.90;;;;;;5058422;28;19970;-82
2021/10/02 13:12:45;;;;;;;;;;;23.00;99.90;;;;;;5056273;28;19920;-83
2021/10/02 13:15:25;;;;;;;;;;;23.30;99.90;;;;;;5058066;28;19909;-82
2021/10/02 13:17:59;;;;;;;;;;;23.40;99.90;;;;;;5057031;28;19935;-82
2021/10/02 13:20:24;;;;;;;;;;;23.30;99.90;;;;;;5058099;28;19931;-82
2021/10/02 13:22:50;;;;;;;;;;;23.10;99.90;;;;;;5058715;28;19909;-82
2021/10/02 13:25:15;;;;;;;;;;;23.00;99.90;;;;;;5059691;28;20380;-83
2021/10/02 13:27:43;;;;;;;;;;;23.00;99.90;;;;;;5060227;28;19992;-82
2021/10/02 13:30:10;;;;;;;;;;;22.90;99.90;;;;;;5057410;28;19909;-83
2021/10/02 13:32:35;;;;;;;;;;;22.70;99.90;;;;;;5059704;28;19920;-82
2021/10/02 13:35:02;;;;;;;;;;;22.60;99.90;;;;;;5059309;28;19909;-82
2021/10/02 13:37:28;;;;;;;;;;;22.60;99.90;;;;;;5058632;28;20440;-82
2021/10/02 13:39:54;;;;;;;;;;;22.70;99.90;;;;;;5057903;28;19935;-83
2021/10/02 13:42:20;;;;;;;;;;;22.70;99.90;;;;;;5060846;28;19920;-82
2021/10/02 13:44:52;;;;;;;;;;;22.60;99.90;;;;;;5059813;28;19908;-82
2021/10/02 13:47:19;;;;;;;;;;;22.60;99.90;;;;;;5058145;28;19916;-82
2021/10/02 13:49:45;;;;;;;;;;;22.50;99.90;;;;;;5059523;28;19909;-82
2021/10/02 13:52:10;;;;;;;;;;;22.50;99.90;;;;;;5059401;28;20019;-82
2021/10/02 13:54:36;;;;;;;;;;;22.50;99.90;;;;;;5062433;28;19984;-82
2021/10/02 13:57:06;;;;;;;;;;;22.50;99.90;;;;;;5064258;28;19912;-82
2021/10/02 13:59:32;;;;;;;;;;;22.50;99.90;;;;;;5062238;28;19909;-83
2021/10/02 14:01:57;;;;;;;;;;;22.40;99.90;;;;;;5061697;28;19988;-83
2021/10/02 14:04:23;;;;;;;;;;;22.40;99.90;;;;;;5063194;28;19909;-82
2021/10/02 14:06:48;;;;;;;;;;;22.30;99.90;;;;;;5063683;28;19909;-82
2021/10/02 14:09:14;;;;;;;;;;;22.20;99.90;;;;;;5064568;28;19956;-82
2021/10/02 14:11:39;;;;;;;;;;;22.00;99.90;;;;;;5062562;28;19976;-82
2021/10/02 14:14:05;;;;;;;;;;;21.90;99.90;;;;;;5061174;28;19920;-82
2021/10/02 14:16:31;;;;;;;;;;;21.70;99.90;;;;;;5063056;28;19935;-82
2021/10/02 14:18:57;;;;;;;;;;;21.60;99.90;;;;;;5061673;28;19909;-83
2021/10/02 14:21:22;;;;;;;;;;;21.50;99.90;;;;;;5063551;28;20289;-82
2021/10/02 14:23:48;;;;;;;;;;;21.30;99.90;;;;;;5061143;28;19908;-82
2021/10/02 14:26:15;;;;;;;;;;;21.20;99.90;;;;;;5063190;28;19963;-82
2021/10/02 14:28:41;;;;;;;;;;;21.00;99.90;;;;;;5062899;28;19948;-83
2021/10/02 14:31:06;;;;;;;;;;;20.90;99.90;;;;;;5061141;28;20275;-83
2021/10/02 14:33:32;;;;;;;;;;;20.70;99.90;;;;;;5063386;28;19968;-82
2021/10/02 14:35:57;;;;;;;;;;;20.60;99.90;;;;;;5062375;28;20517;-82
2021/10/02 14:38:23;;;;;;;;;;;20.50;99.90;;;;;;5062019;28;19909;-82
2021/10/02 14:40:48;;;;;;;;;;;20.50;99.90;;;;;;5062795;28;19909;-82
2021/10/02 14:43:14;;;;;;;;;;;20.40;99.90;;;;;;5059659;28;20386;-82
2021/10/02 14:45:40;;;;;;;;;;;20.40;99.90;;;;;;5057885;28;19909;-82
2021/10/02 14:48:06;;;;;;;;;;;20.50;99.90;;;;;;5056295;28;19912;-82
2021/10/02 14:50:32;;;;;;;;;;;20.50;99.90;;;;;;5057108;28;19916;-82
2021/10/02 14:53:01;;;;;;;;;;;20.50;99.90;;;;;;5056675;28;19913;-82
2021/10/02 14:55:28;;;;;;;;;;;20.40;99.90;;;;;;5057519;28;19920;-83
2021/10/02 14:57:56;;;;;;;;;;;20.40;99.90;;;;;;5058043;28;19915;-82
2021/10/02 15:00:22;;;;;;;;;;;20.40;99.90;;;;;;5057601;28;19970;-82
2021/10/02 15:02:47;;;;;;;;;;;20.40;99.90;;;;;;5058039;28;19913;-82
2021/10/02 15:05:13;;;;;;;;;;;20.40;99.90;;;;;;5057377;28;20524;-78
2021/10/02 15:07:39;;;;;;;;;;;20.40;99.90;;;;;;5049778;28;19913;-82
2021/10/02 15:10:06;;;;;;;;;;;20.30;99.90;;;;;;5057972;28;20292;-82
2021/10/02 15:12:31;;;;;;;;;;;20.20;99.90;;;;;;5063426;28;20591;-83
2021/10/02 15:14:57;;;;;;;;;;;20.10;99.90;;;;;;5062676;28;19920;-82
2021/10/02 15:17:23;;;;;;;;;;;20.00;99.90;;;;;;5061620;28;19916;-82
2021/10/02 15:19:49;;;;;;;;;;;20.00;99.90;;;;;;5062666;28;19921;-83
2021/10/02 15:22:16;;;;;;;;;;;19.80;99.90;;;;;;5062917;28;19909;-82
2021/10/02 15:24:43;;;;;;;;;;;19.80;99.90;;;;;;5063518;28;19931;-83